Time;durP1;ratioP1;P1;durP2;ratioP2;P2;SDS_P1;SDS_P2;PMS_P1;PMS_P2;Temp;Humidity;BMP_temperature;BMP_pressure;BME280_temperature;BME280_humidity;BME280_pressure;Samples;Min_cycle;Max_cycle;Signal;HPM_P1;HPM_P2
2022/11/25 00:00:00;;;;;;;;;;;;;;;;;;5055021;28;6950;-65
2022/11/25 00:02:26;;;;;;;;;;;;;;;;;;5054470;28;8182;-66
2022/11/25 00:04:51;;;;;;;;;;;;;;;;;;5055136;28;7069;-66
2022/11/25 00:07:17;;;;;;;;;;;;;;;;;;5055363;28;7195;-65
2022/11/25 00:09:42;;;;;;;;;;;;;;;;;;5054688;28;7003;-65
2022/11/25 00:12:08;;;;;;;;;;;;;;;;;;5054467;28;7121;-65
2022/11/25 00:14:33;;;;;;;;;;;;;;;;;;5054787;28;7183;-65
2022/11/25 00:16:59;;;;;;;;;;;;;;;;;;5054686;28;7067;-64
2022/11/25 00:19:25;;;;;;;;;;;;;;;;;;5054640;28;7198;-65
2022/11/25 00:21:50;;;;;;;;;;;;;;;;;;5054629;28;7146;-65
2022/11/25 00:24:16;;;;;;;;;;;;;;;;;;5054703;28;7663;-66
2022/11/25 00:26:41;;;;;;;;;;;;;;;;;;5054560;28;6926;-65
2022/11/25 00:29:09;;;;;;;;;;;;;;;;;;5054653;28;7255;-65
2022/11/25 00:31:36;;;;;;;;;;;;;;;;;;5054359;28;7171;-65
2022/11/25 00:34:02;;;;;;;;;;;;;;;;;;5054357;28;7209;-65
2022/11/25 00:36:32;;;;;;;;;;;;;;;;;;5054463;28;7149;-65
2022/11/25 00:39:00;;;;;;;;;;;;;;;;;;5054342;28;7306;-65
2022/11/25 00:46:56;;;;;;;;;;;;;;;;;;5054481;28;6800;-65
2022/11/25 00:49:22;;;;;;;;;;;;;;;;;;5054371;28;6931;-65
2022/11/25 00:51:47;;;;;;;;;;;;;;;;;;5054437;28;7093;-65
2022/11/25 00:54:13;;;;;;;;;;;;;;;;;;5055041;28;7375;-65
2022/11/25 00:56:40;;;;;;;;;;;;;;;;;;5054285;28;7456;-66
2022/11/25 00:59:06;;;;;;;;;;;;;;;;;;5055453;28;7168;-65
2022/11/25 01:01:31;;;;;;;;;;;;;;;;;;5058433;28;6856;-66
2022/11/25 01:03:58;;;;;;;;;;;;;;;;;;5058176;28;7379;-65
2022/11/25 01:06:23;;;;;;;;;;;;;;;;;;5058208;28;7281;-65
2022/11/25 01:08:52;;;;;;;;;;;;;;;;;;5058047;28;6857;-66
2022/11/25 01:11:19;;;;;;;;;;;;;;;;;;5058120;28;7171;-65
2022/11/25 01:13:45;;;;;;;;;;;;;;;;;;5058166;28;7069;-65
2022/11/25 01:16:13;;;;;;;;;;;;;;;;;;5058032;28;7372;-65
2022/11/25 01:18:39;;;;;;;;;;;;;;;;;;5057871;28;7386;-65
2022/11/25 01:21:09;;;;;;;;;;;;;;;;;;5057802;28;7248;-65
2022/11/25 01:23:36;;;;;;;;;;;;;;;;;;5057913;28;7444;-65
2022/11/25 01:26:03;;;;;;;;;;;;;;;;;;5057955;28;6974;-65
2022/11/25 01:28:29;;;;;;;;;;;;;;;;;;5057856;28;7222;-66
2022/11/25 01:30:58;;;;;;;;;;;;;;;;;;5057473;28;7303;-65
2022/11/25 01:33:24;;;;;;;;;;;;;;;;;;5057901;28;6988;-65
2022/11/25 01:35:49;;;;;;;;;;;;;;;;;;5057659;28;7373;-65
2022/11/25 01:38:15;;;;;;;;;;;;;;;;;;5057606;28;7073;-65
2022/11/25 01:40:51;;;;;;;;;;;;;;;;;;5057854;28;7117;-72
2022/11/25 01:43:16;;;;;;;;;;;;;;;;;;5058143;28;7072;-72
2022/11/25 01:45:42;;;;;;;;;;;;;;;;;;5057365;28;7216;-72
2022/11/25 01:48:17;;;;;;;;;;;;;;;;;;5058525;28;7015;-72
2022/11/25 01:50:45;;;;;;;;;;;;;;;;;;5057015;28;6822;-72
2022/11/25 01:53:19;;;;;;;;;;;;;;;;;;5057588;28;7401;-72
2022/11/25 01:55:52;;;;;;;;;;;;;;;;;;5057287;28;7096;-72
2022/11/25 01:58:23;;;;;;;;;;;;;;;;;;5057218;28;7191;-72
2022/11/25 02:00:51;;;;;;;;;;;;;;;;;;5056969;28;6929;-72
2022/11/25 02:03:21;;;;;;;;;;;;;;;;;;5057281;28;7247;-72
2022/11/25 02:05:49;;;;;;;;;;;;;;;;;;5057332;28;7379;-72
2022/11/25 02:08:16;;;;;;;;;;;;;;;;;;5072421;28;7073;-72
2022/11/25 02:10:43;;;;;;;;;;;;;;;;;;5056042;28;7001;-72
2022/11/25 02:13:10;;;;;;;;;;;;;;;;;;5056947;28;7059;-72
2022/11/25 02:15:37;;;;;;;;;;;;;;;;;;5057097;28;7104;-72
2022/11/25 02:18:04;;;;;;;;;;;;;;;;;;5056461;28;7237;-72
2022/11/25 02:20:30;;;;;;;;;;;;;;;;;;5056512;28;6950;-72
2022/11/25 02:23:03;;;;;;;;;;;;;;;;;;5056856;28;7368;-72
2022/11/25 02:25:30;;;;;;;;;;;;;;;;;;5056676;28;7083;-72
2022/11/25 02:28:02;;;;;;;;;;;;;;;;;;5056688;28;7132;-72
2022/11/25 02:30:28;;;;;;;;;;;;;;;;;;5056575;28;7143;-72
2022/11/25 02:32:54;;;;;;;;;;;;;;;;;;5056595;28;7040;-72
2022/11/25 02:35:23;;;;;;;;;;;;;;;;;;5057226;28;7106;-72
2022/11/25 02:37:49;;;;;;;;;;;;;;;;;;5056052;28;7140;-72
2022/11/25 02:40:16;;;;;;;;;;;;;;;;;;5055266;28;8578;-72
2022/11/25 02:42:43;;;;;;;;;;;;;;;;;;5056524;28;7167;-72
2022/11/25 02:45:12;;;;;;;;;;;;;;;;;;5056208;28;7072;-72
2022/11/25 02:47:44;;;;;;;;;;;;;;;;;;5056397;28;7212;-71
2022/11/25 02:50:12;;;;;;;;;;;;;;;;;;5056292;28;7187;-71
2022/11/25 02:52:38;;;;;;;;;;;;;;;;;;5054643;28;9370;-71
2022/11/25 02:55:04;;;;;;;;;;;;;;;;;;5056161;28;7035;-71
2022/11/25 02:57:29;;;;;;;;;;;;;;;;;;5055999;28;6913;-71
2022/11/25 02:59:55;;;;;;;;;;;;;;;;;;5055967;28;7178;-71
2022/11/25 03:02:21;;;;;;;;;;;;;;;;;;5056710;28;7053;-71
2022/11/25 03:04:47;;;;;;;;;;;;;;;;;;5056145;28;7394;-71
2022/11/25 03:07:12;;;;;;;;;;;;;;;;;;5055965;28;7402;-71
2022/11/25 03:09:38;;;;;;;;;;;;;;;;;;5056782;28;6937;-71
2022/11/25 03:12:19;;;;;;;;;;;;;;;;;;5055830;28;7162;-71
2022/11/25 03:14:44;;;;;;;;;;;;;;;;;;5055795;28;7123;-71
2022/11/25 03:17:10;;;;;;;;;;;;;;;;;;5055712;28;7212;-71
2022/11/25 03:19:35;;;;;;;;;;;;;;;;;;5055650;28;7097;-71
2022/11/25 03:22:02;;;;;;;;;;;;;;;;;;5054946;28;6996;-71
2022/11/25 03:24:28;;;;;;;;;;;;;;;;;;5055668;28;7206;-71
2022/11/25 03:26:54;;;;;;;;;;;;;;;;;;5055151;28;8481;-71
2022/11/25 03:29:20;;;;;;;;;;;;;;;;;;5055413;28;7167;-71
2022/11/25 03:31:45;;;;;;;;;;;;;;;;;;5055556;28;7059;-71
2022/11/25 03:34:11;;;;;;;;;;;;;;;;;;5055342;28;7196;-71
2022/11/25 03:36:38;;;;;;;;;;;;;;;;;;5055432;28;7064;-71
2022/11/25 03:39:03;;;;;;;;;;;;;;;;;;5056252;28;6857;-71
2022/11/25 03:41:29;;;;;;;;;;;;;;;;;;5055165;28;6938;-71
2022/11/25 03:43:55;;;;;;;;;;;;;;;;;;5055431;28;7013;-71
2022/11/25 03:46:21;;;;;;;;;;;;;;;;;;5055167;28;7049;-71
2022/11/25 03:48:47;;;;;;;;;;;;;;;;;;5054767;28;7252;-71
2022/11/25 03:51:12;;;;;;;;;;;;;;;;;;5054963;28;7230;-71
2022/11/25 03:53:38;;;;;;;;;;;;;;;;;;5054865;28;7199;-71
2022/11/25 03:56:04;;;;;;;;;;;;;;;;;;5055086;28;6940;-71
2022/11/25 03:58:29;;;;;;;;;;;;;;;;;;5054948;28;6908;-71
2022/11/25 04:01:00;;;;;;;;;;;;;;;;;;5054872;28;6937;-71
2022/11/25 04:03:25;;;;;;;;;;;;;;;;;;5054613;28;7085;-71
2022/11/25 04:05:51;;;;;;;;;;;;;;;;;;5054927;28;7346;-71
2022/11/25 04:08:16;;;;;;;;;;;;;;;;;;5055142;28;7139;-71
2022/11/25 04:10:42;;;;;;;;;;;;;;;;;;5054706;28;6823;-70
2022/11/25 04:13:08;;;;;;;;;;;;;;;;;;5054772;28;7505;-71
2022/11/25 04:15:33;;;;;;;;;;;;;;;;;;5054730;28;7026;-71
2022/11/25 04:17:59;;;;;;;;;;;;;;;;;;5054640;28;7130;-71
2022/11/25 04:20:25;;;;;;;;;;;;;;;;;;5054440;28;7058;-71
2022/11/25 04:22:51;;;;;;;;;;;;;;;;;;5054589;28;6972;-71
2022/11/25 04:25:16;;;;;;;;;;;;;;;;;;5054525;28;7709;-71
2022/11/25 04:27:42;;;;;;;;;;;;;;;;;;5054683;28;7526;-71
2022/11/25 04:30:08;;;;;;;;;;;;;;;;;;5054565;28;7122;-73
2022/11/25 04:32:35;;;;;;;;;;;;;;;;;;5055122;28;7316;-72
2022/11/25 04:35:01;;;;;;;;;;;;;;;;;;5054131;28;7174;-72
2022/11/25 04:37:26;;;;;;;;;;;;;;;;;;5054562;28;7020;-72
2022/11/25 04:39:52;;;;;;;;;;;;;;;;;;5054056;28;8030;-66
2022/11/25 04:42:30;;;;;;;;;;;;;;;;;;5054499;28;7147;-66
2022/11/25 04:44:56;;;;;;;;;;;;;;;;;;5054513;28;7043;-67
2022/11/25 04:47:22;;;;;;;;;;;;;;;;;;5053952;28;6933;-67
2022/11/25 04:49:50;;;;;;;;;;;;;;;;;;5053439;28;8392;-67
2022/11/25 04:52:15;;;;;;;;;;;;;;;;;;5054223;28;7080;-67
2022/11/25 04:54:43;;;;;;;;;;;;;;;;;;5054259;28;7383;-68
2022/11/25 04:57:13;;;;;;;;;;;;;;;;;;5054496;28;7031;-67
2022/11/25 04:59:40;;;;;;;;;;;;;;;;;;5054175;28;7166;-68
2022/11/25 05:02:12;;;;;;;;;;;;;;;;;;5054110;28;7062;-67
2022/11/25 05:04:38;;;;;;;;;;;;;;;;;;5054044;28;7224;-67
2022/11/25 05:07:04;;;;;;;;;;;;;;;;;;5054106;28;7601;-67
2022/11/25 05:09:29;;;;;;;;;;;;;;;;;;5053928;28;7382;-67
2022/11/25 05:11:55;;;;;;;;;;;;;;;;;;5054106;28;7121;-67
2022/11/25 05:14:22;;;;;;;;;;;;;;;;;;5054003;28;6931;-67
2022/11/25 05:16:48;;;;;;;;;;;;;;;;;;5054195;28;7127;-67
2022/11/25 05:19:14;;;;;;;;;;;;;;;;;;5053956;28;7564;-67
2022/11/25 05:21:39;;;;;;;;;;;;;;;;;;5054052;28;7137;-67
2022/11/25 05:24:05;;;;;;;;;;;;;;;;;;5053907;28;7115;-67
2022/11/25 05:26:31;;;;;;;;;;;;;;;;;;5053987;28;7339;-67
2022/11/25 05:28:56;;;;;;;;;;;;;;;;;;5053815;28;7088;-67
2022/11/25 05:31:22;;;;;;;;;;;;;;;;;;5053762;28;6906;-67
2022/11/25 05:33:48;;;;;;;;;;;;;;;;;;5053833;28;6973;-67
2022/11/25 05:36:13;;;;;;;;;;;;;;;;;;5053763;28;6830;-67
2022/11/25 05:38:39;;;;;;;;;;;;;;;;;;5053799;28;7378;-67
2022/11/25 05:41:06;;;;;;;;;;;;;;;;;;5053779;28;7069;-67
2022/11/25 05:43:32;;;;;;;;;;;;;;;;;;5053811;28;6982;-67
2022/11/25 05:45:58;;;;;;;;;;;;;;;;;;5056347;28;7203;-67
2022/11/25 05:48:24;;;;;;;;;;;;;;;;;;5057247;28;7124;-67
2022/11/25 05:50:50;;;;;;;;;;;;;;;;;;5058315;28;7364;-67
2022/11/25 05:53:16;;;;;;;;;;;;;;;;;;5057253;28;7258;-67
2022/11/25 05:55:42;;;;;;;;;;;;;;;;;;5057312;28;7099;-68
2022/11/25 05:58:08;;;;;;;;;;;;;;;;;;5057139;28;7315;-72
2022/11/25 06:00:34;;;;;;;;;;;;;;;;;;5057138;28;6968;-72
2022/11/25 06:02:59;;;;;;;;;;;;;;;;;;5057221;28;6985;-72
2022/11/25 06:05:25;;;;;;;;;;;;;;;;;;5057102;28;7626;-72
2022/11/25 06:07:51;;;;;;;;;;;;;;;;;;5057365;28;6952;-72
2022/11/25 06:10:18;;;;;;;;;;;;;;;;;;5057072;28;6966;-72
2022/11/25 06:12:44;;;;;;;;;;;;;;;;;;5057044;28;7150;-72
2022/11/25 06:15:10;;;;;;;;;;;;;;;;;;5055364;28;7158;-72
2022/11/25 06:17:36;;;;;;;;;;;;;;;;;;5056807;28;7141;-72
2022/11/25 06:20:02;;;;;;;;;;;;;;;;;;5056793;28;7178;-72
2022/11/25 06:22:28;;;;;;;;;;;;;;;;;;5056877;28;7177;-72
2022/11/25 06:24:54;;;;;;;;;;;;;;;;;;5056670;28;7145;-72
2022/11/25 06:27:19;;;;;;;;;;;;;;;;;;5056434;28;7137;-72
2022/11/25 06:29:45;;;;;;;;;;;;;;;;;;5056736;28;7367;-72
2022/11/25 06:32:10;;;;;;;;;;;;;;;;;;5047324;28;7045;-72
2022/11/25 06:34:40;;;;;;;;;;;;;;;;;;5042977;28;6975;-72
2022/11/25 06:37:06;;;;;;;;;;;;;;;;;;5035806;28;7325;-72
2022/11/25 06:39:31;;;;;;;;;;;;;;;;;;5035703;28;7009;-72
2022/11/25 06:41:57;;;;;;;;;;;;;;;;;;5036198;28;7109;-72
2022/11/25 06:44:22;;;;;;;;;;;;;;;;;;5035986;28;7215;-72
2022/11/25 06:46:48;;;;;;;;;;;;;;;;;;5035966;28;7380;-72
2022/11/25 06:49:13;;;;;;;;;;;;;;;;;;5035606;28;7193;-72
2022/11/25 06:51:40;;;;;;;;;;;;;;;;;;5052011;28;7035;-72
2022/11/25 06:54:07;;;;;;;;;;;;;;;;;;5055592;28;7090;-72
2022/11/25 06:56:32;;;;;;;;;;;;;;;;;;5055971;28;6833;-72
2022/11/25 06:58:58;;;;;;;;;;;;;;;;;;5055643;28;7140;-72
2022/11/25 07:01:26;;;;;;;;;;;;;;;;;;5055623;28;7234;-72
2022/11/25 07:03:53;;;;;;;;;;;;;;;;;;5055351;28;7391;-72
2022/11/25 07:06:19;;;;;;;;;;;;;;;;;;5037021;28;7206;-72
2022/11/25 07:08:46;;;;;;;;;;;;;;;;;;5035714;28;7139;-72
2022/11/25 07:11:19;;;;;;;;;;;;;;;;;;5035650;28;7212;-72
2022/11/25 07:13:46;;;;;;;;;;;;;;;;;;5054071;28;7202;-72
2022/11/25 07:16:12;;;;;;;;;;;;;;;;;;5054994;28;7015;-72
2022/11/25 07:18:39;;;;;;;;;;;;;;;;;;5051368;28;7122;-72
2022/11/25 07:21:07;;;;;;;;;;;;;;;;;;5055007;28;7142;-72
2022/11/25 07:23:33;;;;;;;;;;;;;;;;;;5055376;28;6956;-72
2022/11/25 07:26:10;;;;;;;;;;;;;;;;;;5055304;28;7074;-72
2022/11/25 07:28:36;;;;;;;;;;;;;;;;;;5048497;28;7216;-72
2022/11/25 07:31:13;;;;;;;;;;;;;;;;;;5035382;28;7431;-72
2022/11/25 07:33:38;;;;;;;;;;;;;;;;;;5035149;28;7286;-72
2022/11/25 07:36:05;;;;;;;;;;;;;;;;;;5034977;28;7195;-71
2022/11/25 07:38:31;;;;;;;;;;;;;;;;;;5035170;28;7159;-72
2022/11/25 07:43:49;;;;;;;;;;;;;;;;;;5034958;28;6769;-72
2022/11/25 07:49:20;;;;;;;;;;;;;;;;;;5034272;28;6841;-78
2022/11/25 07:52:02;;;;;;;;;;;;;;;;;;5035076;28;7158;-72
2022/11/25 07:54:28;;;;;;;;;;;;;;;;;;5035060;28;7403;-72
2022/11/25 07:57:13;;;;;;;;;;;;;;;;;;5035115;28;7185;-72
2022/11/25 07:59:40;;;;;;;;;;;;;;;;;;5035048;28;7366;-72
2022/11/25 08:02:09;;;;;;;;;;;;;;;;;;5035106;28;7031;-72
2022/11/25 08:04:36;;;;;;;;;;;;;;;;;;5034951;28;7068;-72
2022/11/25 08:07:01;;;;;;;;;;;;;;;;;;5034828;28;7288;-72
2022/11/25 08:09:27;;;;;;;;;;;;;;;;;;5035001;28;6999;-72
2022/11/25 08:15:01;;;;;;;;;;;;;;;;;;5034647;28;6678;-72
2022/11/25 08:17:27;;;;;;;;;;;;;;;;;;5033687;28;8483;-72
2022/11/25 08:26:32;;;;;;;;;;;;;;;;;;5034182;28;6705;-72
2022/11/25 08:28:59;;;;;;;;;;;;;;;;;;5034391;28;7500;-72
2022/11/25 08:31:34;;;;;;;;;;;;;;;;;;5035097;28;7116;-72
2022/11/25 08:34:00;;;;;;;;;;;;;;;;;;5034008;28;7235;-72
2022/11/25 08:36:35;;;;;;;;;;;;;;;;;;5034451;28;7051;-72
2022/11/25 08:39:04;;;;;;;;;;;;;;;;;;5034086;28;8272;-72
2022/11/25 08:41:41;;;;;;;;;;;;;;;;;;5034336;28;7060;-73
2022/11/25 08:44:08;;;;;;;;;;;;;;;;;;5034493;28;7158;-72
2022/11/25 08:49:38;;;;;;;;;;;;;;;;;;5027480;28;6711;-72
2022/11/25 08:58:11;;;;;;;;;;;;;;;;;;5034068;28;6701;-72
2022/11/25 09:04:12;;;;;;;;;;;;;;;;;;5034270;28;6924;-72
2022/11/25 09:06:37;;;;;;;;;;;;;;;;;;5049832;28;8362;-72
2022/11/25 09:09:04;;;;;;;;;;;;;;;;;;5034178;28;8003;-72
2022/11/25 09:11:30;;;;;;;;;;;;;;;;;;5034296;28;7167;-73
2022/11/25 09:13:56;;;;;;;;;;;;;;;;;;5034293;28;7016;-72
2022/11/25 09:16:21;;;;;;;;;;;;;;;;;;5034241;28;7134;-72
2022/11/25 09:18:47;;;;;;;;;;;;;;;;;;5034782;28;7086;-72
2022/11/25 09:21:15;;;;;;;;;;;;;;;;;;5037181;28;7178;-72
2022/11/25 09:23:40;;;;;;;;;;;;;;;;;;5038221;28;7063;-72
2022/11/25 09:26:07;;;;;;;;;;;;;;;;;;5038222;28;7268;-72
2022/11/25 09:28:33;;;;;;;;;;;;;;;;;;5032686;28;8118;-72
2022/11/25 09:31:05;;;;;;;;;;;;;;;;;;5038030;28;7253;-72
2022/11/25 09:33:30;;;;;;;;;;;;;;;;;;5037717;28;7028;-71
2022/11/25 09:35:59;;;;;;;;;;;;;;;;;;5037419;28;7093;-72
2022/11/25 09:38:24;;;;;;;;;;;;;;;;;;5037860;28;7172;-72
2022/11/25 09:41:01;;;;;;;;;;;;;;;;;;5037147;28;7118;-72
2022/11/25 09:46:44;;;;;;;;;;;;;;;;;;5037638;28;7029;-72
2022/11/25 09:49:09;;;;;;;;;;;;;;;;;;5036962;28;7185;-72
2022/11/25 09:52:02;;;;;;;;;;;;;;;;;;5037023;28;7036;-72
2022/11/25 09:54:39;;;;;;;;;;;;;;;;;;5036528;28;7093;-66
2022/11/25 09:57:30;;;;;;;;;;;;;;;;;;5037237;28;7373;-66
2022/11/25 10:00:01;;;;;;;;;;;;;;;;;;5037225;28;6932;-65
2022/11/25 10:02:35;;;;;;;;;;;;;;;;;;5037219;28;7422;-65
2022/11/25 10:05:24;;;;;;;;;;;;;;;;;;5037010;28;6819;-65
2022/11/25 10:07:53;;;;;;;;;;;;;;;;;;5037044;28;7127;-65
2022/11/25 10:10:24;;;;;;;;;;;;;;;;;;5037157;28;6970;-66
2022/11/25 10:12:52;;;;;;;;;;;;;;;;;;5037016;28;7380;-65
2022/11/25 10:15:23;;;;;;;;;;;;;;;;;;5037119;28;7237;-65
2022/11/25 10:17:52;;;;;;;;;;;;;;;;;;5035403;28;8357;-66
2022/11/25 10:20:34;;;;;;;;;;;;;;;;;;5036822;28;7164;-66
2022/11/25 10:23:03;;;;;;;;;;;;;;;;;;5036913;28;7277;-65
2022/11/25 10:25:32;;;;;;;;;;;;;;;;;;5035472;28;7343;-65
2022/11/25 10:28:02;;;;;;;;;;;;;;;;;;5036110;28;7094;-65
2022/11/25 10:30:28;;;;;;;;;;;;;;;;;;5036457;28;7421;-65
2022/11/25 10:35:52;;;;;;;;;;;;;;;;;;5036768;28;6904;-65
2022/11/25 10:38:25;;;;;;;;;;;;;;;;;;5036713;28;6819;-65
2022/11/25 10:40:53;;;;;;;;;;;;;;;;;;5036334;28;7308;-65
2022/11/25 10:43:19;;;;;;;;;;;;;;;;;;5036503;28;7098;-65
2022/11/25 10:46:11;;;;;;;;;;;;;;;;;;5036612;28;7060;-65
2022/11/25 10:51:59;;;;;;;;;;;;;;;;;;5036667;28;6909;-65
2022/11/25 10:54:27;;;;;;;;;;;;;;;;;;5036690;28;6848;-65
2022/11/25 10:56:59;;;;;;;;;;;;;;;;;;5036292;28;7660;-65
2022/11/25 10:59:25;;;;;;;;;;;;;;;;;;5035553;28;6978;-65
2022/11/25 11:02:05;;;;;;;;;;;;;;;;;;5036352;28;6992;-65
2022/11/25 11:04:32;;;;;;;;;;;;;;;;;;5035615;28;7008;-70
2022/11/25 11:07:08;;;;;;;;;;;;;;;;;;5036253;28;7121;-72
2022/11/25 11:09:39;;;;;;;;;;;;;;;;;;5035465;28;6909;-70
2022/11/25 11:12:18;;;;;;;;;;;;;;;;;;5036358;28;7433;-71
2022/11/25 11:14:45;;;;;;;;;;;;;;;;;;5035756;28;6983;-71
2022/11/25 11:17:32;;;;;;;;;;;;;;;;;;5036114;28;7037;-73
2022/11/25 11:20:03;;;;;;;;;;;;;;;;;;5035809;28;6948;-72
2022/11/25 11:22:28;;;;;;;;;;;;;;;;;;5035813;28;7364;-71
2022/11/25 11:25:08;;;;;;;;;;;;;;;;;;5035841;28;7148;-71
2022/11/25 11:28:04;;;;;;;;;;;;;;;;;;5035522;28;7133;-71
2022/11/25 11:30:31;;;;;;;;;;;;;;;;;;5035354;28;9097;-71
2022/11/25 11:33:17;;;;;;;;;;;;;;;;;;5039335;28;7338;-71
2022/11/25 11:36:04;;;;;;;;;;;;;;;;;;5055568;28;7542;-71
2022/11/25 11:38:43;;;;;;;;;;;;;;;;;;5040430;28;7132;-71
2022/11/25 11:41:11;;;;;;;;;;;;;;;;;;5035008;28;7881;-71
2022/11/25 11:43:37;;;;;;;;;;;;;;;;;;5034567;28;7066;-71
2022/11/25 11:46:07;;;;;;;;;;;;;;;;;;5035535;28;7011;-71
2022/11/25 11:48:39;;;;;;;;;;;;;;;;;;5035349;28;7497;-71
2022/11/25 11:51:08;;;;;;;;;;;;;;;;;;5034966;28;7022;-71
2022/11/25 11:53:33;;;;;;;;;;;;;;;;;;5035364;28;7376;-71
2022/11/25 11:56:10;;;;;;;;;;;;;;;;;;5035345;28;7553;-71
2022/11/25 11:58:35;;;;;;;;;;;;;;;;;;5035396;28;7395;-71
2022/11/25 12:01:09;;;;;;;;;;;;;;;;;;5035167;28;7224;-71
2022/11/25 12:03:43;;;;;;;;;;;;;;;;;;5035341;28;7291;-71
2022/11/25 12:06:10;;;;;;;;;;;;;;;;;;5035047;28;7615;-71
2022/11/25 12:08:49;;;;;;;;;;;;;;;;;;5034747;28;7874;-71
2022/11/25 12:11:22;;;;;;;;;;;;;;;;;;5035160;28;7495;-71
2022/11/25 12:14:07;;;;;;;;;;;;;;;;;;5035054;28;7147;-71
2022/11/25 12:16:38;;;;;;;;;;;;;;;;;;5034897;28;6947;-71
2022/11/25 12:19:16;;;;;;;;;;;;;;;;;;5034859;28;7364;-71
2022/11/25 12:21:59;;;;;;;;;;;;;;;;;;5035080;28;7221;-71
2022/11/25 12:24:30;;;;;;;;;;;;;;;;;;5035535;28;7161;-71
2022/11/25 12:27:01;;;;;;;;;;;;;;;;;;5034812;28;7493;-71
2022/11/25 12:29:33;;;;;;;;;;;;;;;;;;5034707;28;7071;-71
2022/11/25 12:32:27;;;;;;;;;;;;;;;;;;5034687;28;7247;-71
2022/11/25 12:35:02;;;;;;;;;;;;;;;;;;5034868;28;7246;-71
2022/11/25 12:37:35;;;;;;;;;;;;;;;;;;5034753;28;7146;-71
2022/11/25 12:40:20;;;;;;;;;;;;;;;;;;5045478;28;7140;-71
2022/11/25 12:42:48;;;;;;;;;;;;;;;;;;5054532;28;7134;-65
2022/11/25 12:45:20;;;;;;;;;;;;;;;;;;5054605;28;6979;-65
2022/11/25 12:47:46;;;;;;;;;;;;;;;;;;5054386;28;7106;-65
2022/11/25 12:50:15;;;;;;;;;;;;;;;;;;5054548;28;7172;-65
2022/11/25 12:52:41;;;;;;;;;;;;;;;;;;5054581;28;7120;-65
2022/11/25 12:55:27;;;;;;;;;;;;;;;;;;5057465;28;7165;-65
2022/11/25 12:57:53;;;;;;;;;;;;;;;;;;5059326;28;7307;-65
2022/11/25 13:00:24;;;;;;;;;;;;;;;;;;5058416;28;7408;-65
2022/11/25 13:02:49;;;;;;;;;;;;;;;;;;5059726;28;7153;-65
2022/11/25 13:05:28;;;;;;;;;;;;;;;;;;5058308;28;7448;-65
2022/11/25 13:08:08;;;;;;;;;;;;;;;;;;5058493;28;7746;-65
2022/11/25 13:10:52;;;;;;;;;;;;;;;;;;5057321;28;8434;-65
2022/11/25 13:13:32;;;;;;;;;;;;;;;;;;5058298;28;7012;-65
2022/11/25 13:15:59;;;;;;;;;;;;;;;;;;5057041;28;9344;-65
2022/11/25 13:18:29;;;;;;;;;;;;;;;;;;5058195;28;6961;-65
2022/11/25 13:20:56;;;;;;;;;;;;;;;;;;5058280;28;7060;-65
2022/11/25 13:23:22;;;;;;;;;;;;;;;;;;5056789;28;9620;-65
2022/11/25 13:25:50;;;;;;;;;;;;;;;;;;5058007;28;6953;-65
2022/11/25 13:28:27;;;;;;;;;;;;;;;;;;5057971;28;7158;-65
2022/11/25 13:30:53;;;;;;;;;;;;;;;;;;5057909;28;7058;-65
2022/11/25 13:33:19;;;;;;;;;;;;;;;;;;5058043;28;7689;-65
2022/11/25 13:35:54;;;;;;;;;;;;;;;;;;5057773;28;7046;-65
2022/11/25 13:38:29;;;;;;;;;;;;;;;;;;5058022;28;7149;-65
2022/11/25 13:40:59;;;;;;;;;;;;;;;;;;5057742;28;7427;-65
2022/11/25 13:43:25;;;;;;;;;;;;;;;;;;5057740;28;7147;-65
2022/11/25 13:45:52;;;;;;;;;;;;;;;;;;5057631;28;7106;-65
2022/11/25 13:48:20;;;;;;;;;;;;;;;;;;5057544;28;7305;-65
2022/11/25 13:50:48;;;;;;;;;;;;;;;;;;5046650;28;7012;-65
2022/11/25 13:53:19;;;;;;;;;;;;;;;;;;5037160;28;7160;-65
2022/11/25 13:55:49;;;;;;;;;;;;;;;;;;5036856;28;7383;-65
2022/11/25 13:58:25;;;;;;;;;;;;;;;;;;5038149;28;7051;-65
2022/11/25 14:00:56;;;;;;;;;;;;;;;;;;5057069;28;7086;-65
2022/11/25 14:03:22;;;;;;;;;;;;;;;;;;5057255;28;6921;-65
2022/11/25 14:05:47;;;;;;;;;;;;;;;;;;5056188;28;6957;-65
2022/11/25 14:08:31;;;;;;;;;;;;;;;;;;5056959;28;7165;-65
2022/11/25 14:11:06;;;;;;;;;;;;;;;;;;5038248;28;7167;-65
2022/11/25 14:13:45;;;;;;;;;;;;;;;;;;5036935;28;7214;-65
2022/11/25 14:16:13;;;;;;;;;;;;;;;;;;5036716;28;7557;-65
2022/11/25 14:18:39;;;;;;;;;;;;;;;;;;5036819;28;6918;-65
2022/11/25 14:21:14;;;;;;;;;;;;;;;;;;5037338;28;7086;-65
2022/11/25 14:23:42;;;;;;;;;;;;;;;;;;5036695;28;7187;-65
2022/11/25 14:26:10;;;;;;;;;;;;;;;;;;5036457;28;7143;-65
2022/11/25 14:29:13;;;;;;;;;;;;;;;;;;5035965;28;6987;-65
2022/11/25 14:31:49;;;;;;;;;;;;;;;;;;5034283;28;7056;-65
2022/11/25 14:34:34;;;;;;;;;;;;;;;;;;5052518;28;7197;-65
2022/11/25 14:37:10;;;;;;;;;;;;;;;;;;5041654;28;7982;-65
2022/11/25 14:42:42;;;;;;;;;;;;;;;;;;5056304;28;7073;-65
2022/11/25 14:54:39;;;;;;;;;;;;;;;;;;5049955;28;6723;-65
2022/11/25 14:57:04;;;;;;;;;;;;;;;;;;5054988;28;8995;-65
2022/11/25 14:59:42;;;;;;;;;;;;;;;;;;5056208;28;7379;-65
2022/11/25 15:05:06;;;;;;;;;;;;;;;;;;5056059;28;7034;-65
2022/11/25 15:07:53;;;;;;;;;;;;;;;;;;5056336;28;7371;-65
2022/11/25 15:10:33;;;;;;;;;;;;;;;;;;5055997;28;7120;-65
2022/11/25 15:16:06;;;;;;;;;;;;;;;;;;5055832;28;6680;-65
2022/11/25 15:21:39;;;;;;;;;;;;;;;;;;5056004;28;7048;-65
2022/11/25 15:24:06;;;;;;;;;;;;;;;;;;5055957;28;7249;-65
2022/11/25 15:26:49;;;;;;;;;;;;;;;;;;5055916;28;7057;-65
2022/11/25 15:29:15;;;;;;;;;;;;;;;;;;5055440;28;6980;-65
2022/11/25 15:31:41;;;;;;;;;;;;;;;;;;5055781;28;7104;-65
2022/11/25 15:40:29;;;;;;;;;;;;;;;;;;5051184;28;6679;-65
2022/11/25 15:42:56;;;;;;;;;;;;;;;;;;5055565;28;7223;-65
2022/11/25 15:45:22;;;;;;;;;;;;;;;;;;5055386;28;7164;-65
2022/11/25 15:47:48;;;;;;;;;;;;;;;;;;5055417;28;7395;-65
2022/11/25 15:53:21;;;;;;;;;;;;;;;;;;5056253;28;7202;-65
2022/11/25 15:55:47;;;;;;;;;;;;;;;;;;5055261;28;7054;-65
2022/11/25 15:58:12;;;;;;;;;;;;;;;;;;5055273;28;6931;-65
2022/11/25 16:00:40;;;;;;;;;;;;;;;;;;5051141;28;7415;-65
2022/11/25 16:03:22;;;;;;;;;;;;;;;;;;5035159;28;7010;-65
2022/11/25 16:08:59;;;;;;;;;;;;;;;;;;5039778;28;6962;-64
2022/11/25 16:11:28;;;;;;;;;;;;;;;;;;5053520;28;8830;-64
2022/11/25 16:14:24;;;;;;;;;;;;;;;;;;5054644;28;7202;-65
2022/11/25 16:16:51;;;;;;;;;;;;;;;;;;5054962;28;6952;-65
2022/11/25 16:19:44;;;;;;;;;;;;;;;;;;5054778;28;7107;-65
2022/11/25 16:22:14;;;;;;;;;;;;;;;;;;5040716;28;7224;-65
2022/11/25 16:24:57;;;;;;;;;;;;;;;;;;5034560;28;7341;-65
2022/11/25 16:27:25;;;;;;;;;;;;;;;;;;5034895;28;6959;-65
2022/11/25 16:30:09;;;;;;;;;;;;;;;;;;5034285;28;7633;-64
2022/11/25 16:32:35;;;;;;;;;;;;;;;;;;5034882;28;7192;-64
2022/11/25 16:35:26;;;;;;;;;;;;;;;;;;5034770;28;7056;-65
2022/11/25 16:37:57;;;;;;;;;;;;;;;;;;5034760;28;7224;-65
2022/11/25 16:40:25;;;;;;;;;;;;;;;;;;5049291;28;8598;-65
2022/11/25 16:46:03;;;;;;;;;;;;;;;;;;5034385;28;7409;-65
2022/11/25 16:48:28;;;;;;;;;;;;;;;;;;5034628;28;7326;-65
2022/11/25 16:50:56;;;;;;;;;;;;;;;;;;5050112;28;8787;-65
2022/11/25 16:53:22;;;;;;;;;;;;;;;;;;5034630;28;7181;-65
2022/11/25 16:56:02;;;;;;;;;;;;;;;;;;5034328;28;6938;-65
2022/11/25 16:58:27;;;;;;;;;;;;;;;;;;5034628;28;7415;-65
2022/11/25 17:00:59;;;;;;;;;;;;;;;;;;5034667;28;6974;-65
2022/11/25 17:03:25;;;;;;;;;;;;;;;;;;5034485;28;7238;-64
2022/11/25 17:05:52;;;;;;;;;;;;;;;;;;5034565;28;7174;-65
2022/11/25 17:08:17;;;;;;;;;;;;;;;;;;5034464;28;7049;-65
2022/11/25 17:10:45;;;;;;;;;;;;;;;;;;5034331;28;7296;-65
2022/11/25 17:13:20;;;;;;;;;;;;;;;;;;5034251;28;7217;-64
2022/11/25 17:15:48;;;;;;;;;;;;;;;;;;5034342;28;7190;-65
2022/11/25 17:18:18;;;;;;;;;;;;;;;;;;5034917;28;7705;-64
2022/11/25 17:23:47;;;;;;;;;;;;;;;;;;5034233;28;6838;-65
2022/11/25 17:26:19;;;;;;;;;;;;;;;;;;5034343;28;6873;-65
2022/11/25 17:28:56;;;;;;;;;;;;;;;;;;5034899;28;7081;-65
2022/11/25 17:31:36;;;;;;;;;;;;;;;;;;5033976;28;7185;-65
2022/11/25 17:34:02;;;;;;;;;;;;;;;;;;5034223;28;7122;-65
2022/11/25 17:36:29;;;;;;;;;;;;;;;;;;5034228;28;7140;-65
2022/11/25 17:38:54;;;;;;;;;;;;;;;;;;5034024;28;7155;-65
2022/11/25 17:41:32;;;;;;;;;;;;;;;;;;5035936;28;7381;-65
2022/11/25 17:43:59;;;;;;;;;;;;;;;;;;5037777;28;7068;-65
2022/11/25 17:46:41;;;;;;;;;;;;;;;;;;5036999;28;7848;-65
2022/11/25 17:49:13;;;;;;;;;;;;;;;;;;5037621;28;7126;-65
2022/11/25 17:51:45;;;;;;;;;;;;;;;;;;5037631;28;7455;-65
2022/11/25 17:54:11;;;;;;;;;;;;;;;;;;5037629;28;7224;-65
2022/11/25 17:59:55;;;;;;;;;;;;;;;;;;5037183;28;7036;-64
2022/11/25 18:02:21;;;;;;;;;;;;;;;;;;5038397;28;7355;-65
2022/11/25 18:04:48;;;;;;;;;;;;;;;;;;5037451;28;7462;-65
2022/11/25 18:10:26;;;;;;;;;;;;;;;;;;5036984;28;6679;-65
2022/11/25 18:12:54;;;;;;;;;;;;;;;;;;5037167;28;7077;-64
2022/11/25 18:15:22;;;;;;;;;;;;;;;;;;5037021;28;7027;-65
2022/11/25 18:17:49;;;;;;;;;;;;;;;;;;5036770;28;7177;-64
2022/11/25 18:24:13;;;;;;;;;;;;;;;;;;5072321;28;6977;-65
2022/11/25 18:26:50;;;;;;;;;;;;;;;;;;5052185;28;7167;-65
2022/11/25 18:29:22;;;;;;;;;;;;;;;;;;5053235;28;7207;-65
2022/11/25 18:31:48;;;;;;;;;;;;;;;;;;5052147;28;7131;-65
2022/11/25 18:34:27;;;;;;;;;;;;;;;;;;5052045;28;7123;-65
2022/11/25 18:36:53;;;;;;;;;;;;;;;;;;5052955;28;7611;-65
2022/11/25 18:39:19;;;;;;;;;;;;;;;;;;5067468;28;8441;-65
2022/11/25 18:41:46;;;;;;;;;;;;;;;;;;5051851;28;7399;-65
2022/11/25 18:47:04;;;;;;;;;;;;;;;;;;5052047;28;6893;-65
2022/11/25 18:49:30;;;;;;;;;;;;;;;;;;5051796;28;7098;-65
2022/11/25 18:51:55;;;;;;;;;;;;;;;;;;5052543;28;6943;-65
2022/11/25 18:54:21;;;;;;;;;;;;;;;;;;5052905;28;7154;-65